createdAt,value
2022-08-16T00:00:24.504Z,16.67
2022-08-16T00:02:52.021Z,16.58
2022-08-16T00:05:19.368Z,16.57
2022-08-16T00:07:47.563Z,16.63
2022-08-16T00:10:20.636Z,16.90
2022-08-16T00:12:49.854Z,16.97
2022-08-16T00:15:17.394Z,16.99
2022-08-16T00:17:56.990Z,17.08
2022-08-16T00:20:24.679Z,16.73
2022-08-16T00:22:52.538Z,16.80
2022-08-16T00:25:19.832Z,16.89
2022-08-16T00:28:07.065Z,17.00
2022-08-16T00:30:35.509Z,17.08
2022-08-16T00:33:06.745Z,17.01
2022-08-16T00:35:35.772Z,16.94
2022-08-16T00:38:03.302Z,17.24
2022-08-16T00:40:53.605Z,17.41
2022-08-16T00:43:21.597Z,17.51
2022-08-16T00:45:58.340Z,17.58
2022-08-16T00:48:30.698Z,17.49
2022-08-16T00:50:59.113Z,17.54
2022-08-16T00:53:27.002Z,17.32
2022-08-16T00:55:58.361Z,16.99
2022-08-16T00:58:34.550Z,16.77
2022-08-16T01:01:02.086Z,16.32
2022-08-16T01:03:31.608Z,16.24
2022-08-16T01:06:40.850Z,16.32
2022-08-16T01:08:49.620Z,16.52
2022-08-16T01:11:18.340Z,16.91
2022-08-16T01:13:47.524Z,16.99
2022-08-16T01:16:19.984Z,17.17
2022-08-16T01:18:47.505Z,17.33
2022-08-16T01:21:15.882Z,16.68
2022-08-16T01:23:58.529Z,16.76
2022-08-16T01:26:34.134Z,17.02
2022-08-16T01:29:02.629Z,17.00
2022-08-16T01:31:31.167Z,17.11
2022-08-16T01:33:58.592Z,17.15
2022-08-16T01:36:25.865Z,17.04
2022-08-16T01:38:57.174Z,17.03
2022-08-16T01:41:24.791Z,17.13
2022-08-16T01:43:53.773Z,17.22
2022-08-16T01:46:37.700Z,17.48
2022-08-16T01:49:05.856Z,17.16
2022-08-16T01:51:33.175Z,17.02
2022-08-16T01:54:06.694Z,16.71
2022-08-16T01:56:34.638Z,16.49
2022-08-16T01:59:02.018Z,16.16
2022-08-16T02:01:29.488Z,16.02
2022-08-16T02:04:10.136Z,15.89
2022-08-16T02:06:38.693Z,16.03
2022-08-16T02:09:06.603Z,16.40
2022-08-16T02:11:47.284Z,16.70
2022-08-16T02:14:21.669Z,16.73
2022-08-16T02:16:49.036Z,16.60
2022-08-16T02:19:16.684Z,16.37
2022-08-16T02:22:08.225Z,16.74
2022-08-16T02:24:32.649Z,16.97
2022-08-16T02:27:08.062Z,17.24
2022-08-16T02:29:35.477Z,17.69
2022-08-16T02:32:49.131Z,18.03
2022-08-16T02:34:50.196Z,17.84
2022-08-16T02:37:20.904Z,17.85
2022-08-16T02:39:54.138Z,17.88
2022-08-16T02:42:21.648Z,18.12
2022-08-16T02:44:49.085Z,18.14
2022-08-16T02:47:25.414Z,18.01
2022-08-16T02:50:25.831Z,17.92
2022-08-16T02:52:46.031Z,17.98
2022-08-16T02:55:17.042Z,17.61
2022-08-16T02:58:04.263Z,17.22
2022-08-16T03:00:34.930Z,17.30
2022-08-16T03:03:03.603Z,17.52
2022-08-16T03:05:31.713Z,16.91
2022-08-16T03:08:00.652Z,16.65
2022-08-16T03:10:34.025Z,17.23
2022-08-16T03:13:02.138Z,17.58
2022-08-16T03:15:30.879Z,17.80
2022-08-16T03:17:58.159Z,17.80
2022-08-16T03:20:32.364Z,18.17
2022-08-16T03:23:02.692Z,18.44
2022-08-16T03:25:40.778Z,18.47
2022-08-16T03:28:11.716Z,18.66
2022-08-16T03:30:39.005Z,18.53
2022-08-16T03:33:07.623Z,18.37
2022-08-16T03:35:35.423Z,18.12
2022-08-16T03:38:04.051Z,17.99
2022-08-16T03:40:33.498Z,18.16
2022-08-16T03:43:19.978Z,18.40
2022-08-16T03:45:48.286Z,17.75
2022-08-16T03:48:19.685Z,17.64
2022-08-16T03:50:59.945Z,18.13
2022-08-16T03:53:37.657Z,17.88
2022-08-16T03:56:05.591Z,17.54
2022-08-16T03:58:33.796Z,16.61
2022-08-16T04:01:01.116Z,16.09
2022-08-16T04:03:28.452Z,16.00
2022-08-16T04:05:57.269Z,16.12
2022-08-16T04:08:24.678Z,16.15
2022-08-16T04:10:54.849Z,15.95
2022-08-16T04:14:00.032Z,15.92
2022-08-16T04:16:29.412Z,15.65
2022-08-16T04:19:01.431Z,15.50
2022-08-16T04:21:30.319Z,15.49
2022-08-16T04:23:59.242Z,15.35
2022-08-16T04:26:30.682Z,15.11
2022-08-16T04:29:21.644Z,15.75
2022-08-16T04:31:45.771Z,16.49
2022-08-16T04:34:13.063Z,16.87
2022-08-16T04:36:40.331Z,17.14
2022-08-16T04:39:07.752Z,17.57
2022-08-16T04:41:37.664Z,17.95
2022-08-16T04:44:52.656Z,18.21
2022-08-16T04:47:01.492Z,18.53
2022-08-16T04:49:38.534Z,18.85
2022-08-16T04:52:33.393Z,18.73
2022-08-16T04:55:00.781Z,18.79
2022-08-16T04:57:28.086Z,18.63
2022-08-16T04:59:57.533Z,18.63
2022-08-16T05:02:41.952Z,18.82
2022-08-16T05:05:17.679Z,19.08
2022-08-16T05:07:58.511Z,19.25
2022-08-16T05:10:27.437Z,19.55
2022-08-16T05:12:54.724Z,19.78
2022-08-16T05:15:23.973Z,19.85
2022-08-16T05:17:58.729Z,19.25
2022-08-16T05:20:38.993Z,18.57
2022-08-16T05:23:13.801Z,18.54
2022-08-16T05:25:48.296Z,19.21
2022-08-16T05:28:15.916Z,19.28
2022-08-16T05:30:43.384Z,18.70
2022-08-16T05:33:16.363Z,18.52
2022-08-16T05:35:44.252Z,18.38
2022-08-16T05:38:30.915Z,18.14
2022-08-16T05:41:06.046Z,18.26
2022-08-16T05:43:43.239Z,17.77
2022-08-16T05:46:29.548Z,17.88
2022-08-16T05:49:09.096Z,17.68
2022-08-16T05:51:38.798Z,17.90
2022-08-16T05:54:07.626Z,18.07
2022-08-16T05:56:37.630Z,18.39
2022-08-16T05:59:06.427Z,19.04
2022-08-16T06:01:38.049Z,18.65
2022-08-16T06:04:13.048Z,18.57
2022-08-16T06:06:41.183Z,18.58
2022-08-16T06:09:10.909Z,18.80
2022-08-16T06:11:38.185Z,18.79
2022-08-16T06:14:10.407Z,18.80
2022-08-16T06:16:37.685Z,18.85
2022-08-16T06:19:05.165Z,19.22
2022-08-16T06:21:36.801Z,19.99
2022-08-16T06:24:53.673Z,20.50
2022-08-16T06:26:57.720Z,21.07
2022-08-16T06:29:25.744Z,21.07
2022-08-16T06:31:53.893Z,20.68
2022-08-16T06:34:56.208Z,20.51
2022-08-16T06:37:10.972Z,20.69
2022-08-16T06:39:49.954Z,21.17
2022-08-16T06:42:18.242Z,21.26
2022-08-16T06:44:46.341Z,21.85
2022-08-16T06:47:17.135Z,22.09
2022-08-16T06:49:52.601Z,22.52
2022-08-16T06:52:57.875Z,22.59
2022-08-16T06:55:12.948Z,22.44
2022-08-16T06:57:40.929Z,22.71
2022-08-16T07:00:12.997Z,23.00
2022-08-16T07:02:52.283Z,23.12
2022-08-16T07:05:19.742Z,22.92
2022-08-16T07:07:47.031Z,22.69
2022-08-16T07:10:18.198Z,23.10
2022-08-16T07:13:03.608Z,22.89
2022-08-16T07:15:31.989Z,23.16
2022-08-16T07:17:59.271Z,23.19
2022-08-16T07:20:35.017Z,23.14
2022-08-16T07:23:04.031Z,22.82
2022-08-16T07:25:40.821Z,22.52
2022-08-16T07:28:11.973Z,22.95
2022-08-16T07:30:46.297Z,23.20
2022-08-16T07:33:15.866Z,22.21
2022-08-16T07:35:49.417Z,22.79
2022-08-16T07:38:17.344Z,22.97
2022-08-16T07:41:00.780Z,23.47
2022-08-16T07:43:28.965Z,23.71
2022-08-16T07:45:56.901Z,24.19
2022-08-16T07:48:24.268Z,23.28
2022-08-16T07:50:57.851Z,23.54
2022-08-16T07:53:29.184Z,23.43
2022-08-16T07:55:56.604Z,23.81
2022-08-16T07:58:33.493Z,23.95
2022-08-16T08:01:04.703Z,23.36
2022-08-16T08:03:39.194Z,23.80
2022-08-16T08:06:10.369Z,23.31
2022-08-16T08:08:50.145Z,23.45
2022-08-16T08:11:21.806Z,23.66
2022-08-16T08:13:50.981Z,24.18
2022-08-16T08:16:18.995Z,24.31
2022-08-16T08:18:50.125Z,24.18
2022-08-16T08:21:26.349Z,24.41
2022-08-16T08:23:54.993Z,24.81
2022-08-16T08:26:22.254Z,23.72
2022-08-16T08:28:51.667Z,24.45
2022-08-16T08:31:19.219Z,24.66
2022-08-16T08:33:51.481Z,24.40
2022-08-16T08:36:21.970Z,24.51
2022-08-16T08:38:49.786Z,24.41
2022-08-16T08:41:18.883Z,24.11
2022-08-16T08:43:46.791Z,24.32
2022-08-16T08:46:18.300Z,24.44
2022-08-16T08:48:59.275Z,23.94
2022-08-16T08:51:27.767Z,23.20
2022-08-16T08:54:03.241Z,24.09
2022-08-16T08:56:35.127Z,23.39
2022-08-16T08:59:06.091Z,22.73
2022-08-16T09:01:42.738Z,23.05
2022-08-16T09:04:14.869Z,22.45
2022-08-16T09:06:45.023Z,22.64
2022-08-16T09:09:16.992Z,22.91
2022-08-16T09:11:50.934Z,23.40
2022-08-16T09:14:23.955Z,24.24
2022-08-16T09:17:01.772Z,24.46
2022-08-16T09:19:33.914Z,24.20
2022-08-16T09:22:01.501Z,24.11
2022-08-16T09:24:52.526Z,22.64
2022-08-16T09:27:16.174Z,22.85
2022-08-16T09:29:45.361Z,23.28
2022-08-16T09:32:13.174Z,23.69
2022-08-16T09:34:58.747Z,22.83
2022-08-16T09:37:29.248Z,23.63
2022-08-16T09:39:57.402Z,23.80
2022-08-16T09:42:27.083Z,23.15
2022-08-16T09:45:11.027Z,24.12
2022-08-16T09:47:57.400Z,23.73
2022-08-16T09:50:25.438Z,23.78
2022-08-16T09:52:52.733Z,23.32
2022-08-16T09:55:19.999Z,23.06
2022-08-16T09:57:53.157Z,22.74
2022-08-16T10:00:44.889Z,22.95
2022-08-16T10:03:10.125Z,23.45
2022-08-16T10:05:37.558Z,23.98
2022-08-16T10:08:25.419Z,23.91
2022-08-16T10:10:52.091Z,24.18
2022-08-16T10:13:21.174Z,24.03
2022-08-16T10:15:55.498Z,24.63
2022-08-16T10:19:00.484Z,24.94
2022-08-16T10:21:10.503Z,25.78
2022-08-16T10:23:37.803Z,25.70
2022-08-16T10:27:17.953Z,25.01
2022-08-16T10:28:52.549Z,24.66
2022-08-16T10:31:44.195Z,24.59
2022-08-16T10:34:31.922Z,25.86
2022-08-16T10:36:54.563Z,25.57
2022-08-16T10:39:22.232Z,25.83
2022-08-16T10:41:51.709Z,26.37
2022-08-16T10:44:18.987Z,26.74
2022-08-16T10:46:46.287Z,26.75
2022-08-16T10:49:16.844Z,26.61
2022-08-16T10:52:03.002Z,25.11
2022-08-16T10:54:32.944Z,25.66
2022-08-16T10:57:00.527Z,26.77
2022-08-16T10:59:32.440Z,26.45
2022-08-16T11:05:08.129Z,26.15
2022-08-16T11:07:45.523Z,25.82
2022-08-16T11:10:20.752Z,26.37
2022-08-16T11:12:48.804Z,25.50
2022-08-16T11:15:20.235Z,26.57
2022-08-16T11:18:48.007Z,26.44
2022-08-16T11:20:42.186Z,26.56
2022-08-16T11:23:10.002Z,26.19
2022-08-16T11:31:13.655Z,26.64
2022-08-16T11:33:56.336Z,26.78
2022-08-16T11:36:24.961Z,26.98
2022-08-16T11:38:57.046Z,27.08
2022-08-16T11:41:25.161Z,27.35
2022-08-16T11:43:56.565Z,27.32
2022-08-16T11:46:44.406Z,27.30
2022-08-16T11:49:13.644Z,27.24
2022-08-16T11:51:41.489Z,27.15
2022-08-16T11:54:20.088Z,27.09
2022-08-16T11:56:52.721Z,27.27
2022-08-16T11:59:25.360Z,27.37
2022-08-16T12:01:59.862Z,26.89
2022-08-16T12:04:31.851Z,26.87
2022-08-16T12:06:59.264Z,27.17
2022-08-16T12:09:29.392Z,27.47
2022-08-16T12:11:57.113Z,27.70
2022-08-16T12:14:24.401Z,27.93
2022-08-16T12:16:55.754Z,28.02
2022-08-16T12:19:23.440Z,26.64
2022-08-16T12:22:01.362Z,27.48
2022-08-16T12:24:32.953Z,27.56
2022-08-16T12:27:00.233Z,28.06
2022-08-16T12:29:29.223Z,27.64
2022-08-16T12:32:01.205Z,27.57
2022-08-16T12:34:50.914Z,27.40
2022-08-16T12:37:20.457Z,27.62
2022-08-16T12:39:51.132Z,27.85
2022-08-16T12:42:19.411Z,27.56
2022-08-16T12:44:47.968Z,27.27
2022-08-16T12:47:15.238Z,27.30
2022-08-16T12:49:42.593Z,28.25
2022-08-16T12:52:09.899Z,28.21
2022-08-16T12:54:57.122Z,28.11
2022-08-16T12:57:24.514Z,26.86
2022-08-16T13:00:03.537Z,27.81
2022-08-16T13:02:33.858Z,28.11
2022-08-16T13:05:03.769Z,27.94
2022-08-16T13:07:42.492Z,27.62
2022-08-16T13:10:21.277Z,28.00
2022-08-16T13:13:01.969Z,28.34
2022-08-16T13:15:31.121Z,28.46
2022-08-16T13:18:24.109Z,28.06
2022-08-16T13:20:50.641Z,28.08
2022-08-16T13:23:18.867Z,28.48
2022-08-16T13:25:46.919Z,28.43
2022-08-16T13:28:18.265Z,28.30
2022-08-16T13:30:46.026Z,28.73
2022-08-16T13:33:16.494Z,28.63
2022-08-16T13:35:44.406Z,28.75
2022-08-16T13:38:24.536Z,29.00
2022-08-16T13:40:52.773Z,28.70
2022-08-16T13:43:23.052Z,29.02
2022-08-16T13:45:50.644Z,28.74
2022-08-16T13:48:24.572Z,28.71
2022-08-16T13:50:52.744Z,28.80
2022-08-16T13:53:24.532Z,28.88
2022-08-16T13:55:58.524Z,28.82
2022-08-16T13:58:36.697Z,28.81
2022-08-16T14:01:13.690Z,28.67
2022-08-16T14:03:41.082Z,28.87
2022-08-16T14:06:10.861Z,28.93
2022-08-16T14:08:41.912Z,29.38
2022-08-16T14:11:12.007Z,29.05
2022-08-16T14:13:39.685Z,29.23
2022-08-16T14:16:12.710Z,29.12
2022-08-16T14:18:52.678Z,29.75
2022-08-16T14:21:22.117Z,29.67
2022-08-16T14:23:51.241Z,29.55
2022-08-16T14:26:18.936Z,29.67
2022-08-16T14:28:46.209Z,29.89
2022-08-16T14:31:13.501Z,29.73
2022-08-16T14:33:42.426Z,29.66
2022-08-16T14:36:10.594Z,29.72
2022-08-16T14:38:45.721Z,29.72
2022-08-16T14:41:14.298Z,29.65
2022-08-16T14:43:41.578Z,30.13
2022-08-16T14:46:09.404Z,30.03
2022-08-16T14:48:36.721Z,30.01
2022-08-16T14:51:04.022Z,30.01
2022-08-16T14:53:33.885Z,30.30
2022-08-16T14:56:01.166Z,29.93
2022-08-16T14:58:36.993Z,30.17
2022-08-16T15:01:05.620Z,30.10
2022-08-16T15:03:33.357Z,30.11
2022-08-16T15:06:04.968Z,30.22
2022-08-16T15:08:37.119Z,30.03
2022-08-16T15:11:07.991Z,30.05
2022-08-16T15:13:35.359Z,29.81
2022-08-16T15:16:03.191Z,29.69
2022-08-16T15:18:31.761Z,30.21
2022-08-16T15:20:59.453Z,29.93
2022-08-16T15:23:26.724Z,30.10
2022-08-16T15:26:02.627Z,30.41
2022-08-16T15:28:32.102Z,30.29
2022-08-16T15:31:03.209Z,30.21
2022-08-16T15:33:32.110Z,30.47
2022-08-16T15:35:59.609Z,30.67
2022-08-16T15:38:57.785Z,30.57
2022-08-16T15:41:14.632Z,30.90
2022-08-16T15:43:41.973Z,31.45
2022-08-16T15:46:11.358Z,30.98
2022-08-16T15:48:58.584Z,30.88
2022-08-16T15:51:26.560Z,30.86
2022-08-16T15:54:16.293Z,30.88
2022-08-16T15:56:42.562Z,30.96
2022-08-16T15:59:10.106Z,31.25
2022-08-16T16:01:37.378Z,31.48
2022-08-16T16:04:05.012Z,31.34
2022-08-16T16:06:35.369Z,31.75
2022-08-16T16:09:02.637Z,31.84
2022-08-16T16:11:31.163Z,32.32
2022-08-16T16:13:58.544Z,31.95
2022-08-16T16:16:25.823Z,31.74
2022-08-16T16:18:54.999Z,31.10
2022-08-16T16:21:22.310Z,30.95
2022-08-16T16:23:54.814Z,30.84
2022-08-16T16:26:25.012Z,30.67
2022-08-16T16:29:07.736Z,30.95
2022-08-16T16:31:36.343Z,31.26
2022-08-16T16:34:06.334Z,31.17
2022-08-16T16:36:34.060Z,31.31
2022-08-16T16:39:01.391Z,30.76
2022-08-16T16:41:28.713Z,30.89
2022-08-16T16:43:57.733Z,31.02
2022-08-16T16:46:42.531Z,31.04
2022-08-16T16:49:11.167Z,31.02
2022-08-16T16:51:40.879Z,31.33
2022-08-16T16:54:08.478Z,31.81
2022-08-16T16:56:37.697Z,32.12
2022-08-16T16:59:05.140Z,31.95
2022-08-16T17:01:35.082Z,31.69
2022-08-16T17:04:22.259Z,31.73
2022-08-16T17:06:53.576Z,31.39
2022-08-16T17:09:24.781Z,31.48
2022-08-16T17:11:55.408Z,31.81
2022-08-16T17:14:31.969Z,31.81
2022-08-16T17:16:59.861Z,31.70
2022-08-16T17:19:31.855Z,32.12
2022-08-16T17:21:59.320Z,32.40
2022-08-16T17:24:39.862Z,32.06
2022-08-16T17:27:11.971Z,32.16
2022-08-16T17:29:47.461Z,32.38
2022-08-16T17:32:46.522Z,32.78
2022-08-16T17:35:10.779Z,32.78
2022-08-16T17:39:27.327Z,32.74
2022-08-16T17:40:47.380Z,32.67
2022-08-16T17:43:13.454Z,32.63
2022-08-16T17:45:40.829Z,32.52
2022-08-16T17:48:08.113Z,32.83
2022-08-16T17:50:35.877Z,32.67
2022-08-16T17:53:03.369Z,32.66
2022-08-16T17:55:30.648Z,32.66
2022-08-16T17:57:57.923Z,32.74
2022-08-16T18:00:27.233Z,32.75
2022-08-16T18:02:54.814Z,32.49
2022-08-16T18:05:22.304Z,32.38
2022-08-16T18:07:49.607Z,32.38
2022-08-16T18:10:19.876Z,32.49
2022-08-16T18:13:00.647Z,32.65
2022-08-16T18:15:28.387Z,32.67
2022-08-16T18:17:55.664Z,32.86
2022-08-16T18:20:22.965Z,32.15
2022-08-16T18:22:50.394Z,31.35
2022-08-16T18:25:17.822Z,30.34
2022-08-16T18:27:45.111Z,29.41
2022-08-16T18:30:12.406Z,28.70
2022-08-16T18:32:39.681Z,28.38
2022-08-16T18:35:06.968Z,27.94
2022-08-16T18:37:34.270Z,27.99
2022-08-16T18:40:02.542Z,27.23
2022-08-16T18:42:29.833Z,26.87
2022-08-16T18:44:57.103Z,26.65
2022-08-16T18:47:24.395Z,26.23
2022-08-16T18:49:51.685Z,25.09
2022-08-16T18:52:25.129Z,24.66
2022-08-16T18:55:02.235Z,24.25
2022-08-16T18:57:30.551Z,23.79
2022-08-16T18:59:57.932Z,24.12
2022-08-16T19:02:56.145Z,23.87
2022-08-16T19:05:12.457Z,23.27
2022-08-16T19:07:39.750Z,23.42
2022-08-16T19:10:07.031Z,23.36
2022-08-16T19:12:37.782Z,23.21
2022-08-16T19:15:11.896Z,23.00
2022-08-16T19:17:39.588Z,22.77
2022-08-16T19:20:10.537Z,22.27
2022-08-16T19:23:01.543Z,22.38
2022-08-16T19:25:47.463Z,22.15
2022-08-16T19:28:21.633Z,22.24
2022-08-16T19:31:00.150Z,22.32
2022-08-16T19:33:29.448Z,22.59
2022-08-16T19:35:56.712Z,22.44
2022-08-16T19:38:24.008Z,23.01
2022-08-16T19:40:51.315Z,23.10
2022-08-16T19:43:18.589Z,23.53
2022-08-16T19:45:46.407Z,23.77
2022-08-16T19:48:13.798Z,23.86
2022-08-16T19:50:41.120Z,23.55
2022-08-16T19:53:12.962Z,23.90
2022-08-16T19:55:47.352Z,23.65
2022-08-16T19:58:14.873Z,23.19
2022-08-16T20:00:42.147Z,23.35
2022-08-16T20:03:10.051Z,23.30
2022-08-16T20:05:37.493Z,23.30
2022-08-16T20:08:04.893Z,23.15
2022-08-16T20:10:32.193Z,23.14
2022-08-16T20:13:02.427Z,23.59
2022-08-16T20:15:30.065Z,23.87
2022-08-16T20:17:57.403Z,23.64
2022-08-16T20:20:26.080Z,23.37
2022-08-16T20:22:54.632Z,23.37
2022-08-16T20:25:28.021Z,23.46
2022-08-16T20:27:55.505Z,23.61
2022-08-16T20:30:22.774Z,24.00
2022-08-16T20:32:50.452Z,24.26
2022-08-16T20:35:17.974Z,24.26
2022-08-16T20:37:45.249Z,24.14
2022-08-16T20:40:28.836Z,23.93
2022-08-16T20:42:59.856Z,23.71
2022-08-16T20:45:27.212Z,23.71
2022-08-16T20:47:54.997Z,23.50
2022-08-16T20:50:22.305Z,23.38
2022-08-16T20:52:49.655Z,23.22
2022-08-16T20:55:17.024Z,23.42
2022-08-16T20:57:44.324Z,23.57
2022-08-16T21:00:11.610Z,23.58
2022-08-16T21:02:41.384Z,22.99
2022-08-16T21:05:08.715Z,22.90
2022-08-16T21:07:36.026Z,23.82
2022-08-16T21:10:03.303Z,24.27
2022-08-16T21:12:34.637Z,24.37
2022-08-16T21:15:04.895Z,24.98
2022-08-16T21:17:32.182Z,24.54
2022-08-16T21:19:59.469Z,25.34
2022-08-16T21:22:26.774Z,25.69
2022-08-16T21:24:54.309Z,26.05
2022-08-16T21:27:23.107Z,26.50
2022-08-16T21:29:51.754Z,26.54
2022-08-16T21:32:19.797Z,24.95
2022-08-16T21:35:02.091Z,23.15
2022-08-16T21:37:29.361Z,21.15
2022-08-16T21:39:56.807Z,20.64
2022-08-16T21:42:24.158Z,20.42
2022-08-16T21:44:51.443Z,21.41
2022-08-16T21:47:18.751Z,22.02
2022-08-16T21:49:46.503Z,22.07
2022-08-16T21:52:22.607Z,22.76
2022-08-16T21:54:54.195Z,22.52
2022-08-16T21:57:23.740Z,22.40
2022-08-16T21:59:51.026Z,22.37
2022-08-16T22:02:18.345Z,22.36
2022-08-16T22:04:45.627Z,23.12
2022-08-16T22:07:12.912Z,22.91
2022-08-16T22:09:40.209Z,22.96
2022-08-16T22:12:07.485Z,23.67
2022-08-16T22:14:34.764Z,23.89
2022-08-16T22:17:02.062Z,24.04
2022-08-16T22:19:29.336Z,23.88
2022-08-16T22:21:56.655Z,23.76
2022-08-16T22:24:23.954Z,24.07
2022-08-16T22:26:51.246Z,24.42
2022-08-16T22:29:20.531Z,24.65
2022-08-16T22:31:47.850Z,24.52
2022-08-16T22:34:15.151Z,24.55
2022-08-16T22:36:42.431Z,23.21
2022-08-16T22:39:09.718Z,21.96
2022-08-16T22:41:37.006Z,20.98
2022-08-16T22:44:04.317Z,19.86
2022-08-16T22:46:31.646Z,19.07
2022-08-16T22:48:58.919Z,18.65
2022-08-16T22:51:28.218Z,18.32
2022-08-16T22:53:55.504Z,18.74
2022-08-16T22:56:22.776Z,18.60
2022-08-16T22:58:50.093Z,19.08
2022-08-16T23:01:17.399Z,19.36
2022-08-16T23:03:44.694Z,20.05
2022-08-16T23:06:11.996Z,20.61
2022-08-16T23:08:40.786Z,19.99
2022-08-16T23:11:08.408Z,19.93
2022-08-16T23:13:35.710Z,20.35
2022-08-16T23:16:03.010Z,20.10
2022-08-16T23:18:38.901Z,19.84
2022-08-16T23:21:06.181Z,19.99
2022-08-16T23:23:33.466Z,20.13
2022-08-16T23:26:00.738Z,20.61
2022-08-16T23:28:29.637Z,20.59
2022-08-16T23:30:56.964Z,20.06
2022-08-16T23:33:24.232Z,20.18
2022-08-16T23:35:51.498Z,20.09
2022-08-16T23:38:37.497Z,19.82
2022-08-16T23:41:06.065Z,19.82
2022-08-16T23:43:36.804Z,19.49
2022-08-16T23:46:04.078Z,19.90
2022-08-16T23:48:31.370Z,20.01
2022-08-16T23:51:18.644Z,20.18
2022-08-16T23:53:45.930Z,20.56
2022-08-16T23:56:13.209Z,20.64
2022-08-16T23:58:40.509Z,20.53
